MLBA4: Mulberry River at Mulberry, AR

                                SHEF ID:       MLBA4     Mulberry River near Mulberry. AR
STATION TYPE: Stream Gauge

PRECIP STAGE RIV-FLOW BAT-LOAD
in ft cfs volt
Ccp-Rev Ccp-Rev Ccp-Rev Ccp-Rev
(America/Chicago)
07/02 00:00 0.00 2.18 645 13.38
07/02 01:00 0.00 2.17 639 13.39
07/02 02:00 0.00 2.20 657 13.39
07/02 03:00 0.00 2.17 639 13.41
07/02 04:00 0.00 2.16 633 13.41
07/02 05:00 0.00 2.19 651 13.41
07/02 06:00 0.00 2.17 639 13.42
07/02 07:00 0.00 2.13 616 13.42
07/02 08:00 0.00 2.14 622 13.42
07/02 09:00 0.00 2.17 639 13.42
07/02 10:00 0.00 2.17 639 13.41
07/02 11:00 0.00 2.11 598 13.41
07/02 12:00 0.00 2.16 633 13.41
07/02 13:00 0.00 2.12 607 13.39
07/02 14:00 0.00 2.11 598 13.39
07/02 15:00 0.00 2.13 616 13.39
07/02 16:00 0.00 2.08 572 13.38
07/02 17:00 0.00 2.05 546 13.37
07/02 18:00 0.00 2.07 563 13.37
07/02 19:00 0.00 2.06 555 13.37
07/02 20:00 0.00 2.04 538 13.37
07/02 21:00 0.00 2.05 546 13.39
07/02 22:00 0.00 2.08 572 13.36
07/02 23:00 0.00 2.07 563 13.38
Data processed at Fri 03Jul2026 04:40 GMT

NOTICE: If you are parsing this page

Please convert to using our Data API. Starting early 2026 we will be migrating to: https://water.usace.army.mil with modern pages rendered in JavaScript. When this migration completes you will no longer be able to scrape this page! CWMSDataAPI (CDA)

Timeseries IDs (TSIDs)

TSIDs used from left to right in the data table
MULB.Precip-Inc.Total.1Hour.1Hour.Ccp-Rev
MULB.Stage.Inst.1Hour.0.Ccp-Rev
MULB.Flow.Inst.1Hour.0.Ccp-Rev
MULB.Volt-Battery Load.Inst.1Hour.0.Ccp-Rev

                            

All information presented herein is the property of the government of the United States of America and may be revised or deleted at any time without prior notice. Dissemination of this information without the expressed written consent of the Public Affairs Office, Tulsa District U.S. Army Corps of Engineers is strictly prohibited. These data are gathered electronically and, as presented, have NOT undergone any form of quality control. These data are NOT guaranteed to be valid or correct.